sensor_id;sensor_type;location;lat;lon;timestamp;P1;durP1;ratioP1;P2;durP2;ratioP2
63690;SDS011;49837;57.280;27.070;2022-07-06T00:01:00;8.6;;;2.1;;
63690;SDS011;49837;57.280;27.070;2022-07-06T00:02:01;3.7;;;1.8;;
63690;SDS011;49837;57.280;27.070;2022-07-06T00:03:01;7.4;;;1.8;;
63690;SDS011;49837;57.280;27.070;2022-07-06T00:04:01;6.6;;;1.8;;
63690;SDS011;49837;57.280;27.070;2022-07-06T00:05:02;4.2;;;1.8;;
63690;SDS011;49837;57.280;27.070;2022-07-06T00:06:02;5.5;;;1.9;;
63690;SDS011;49837;57.280;27.070;2022-07-06T00:07:02;7.0;;;1.8;;
63690;SDS011;49837;57.280;27.070;2022-07-06T00:08:03;4.2;;;2.1;;
63690;SDS011;49837;57.280;27.070;2022-07-06T00:09:04;3.3;;;1.8;;
63690;SDS011;49837;57.280;27.070;2022-07-06T00:10:04;9.0;;;2.1;;
63690;SDS011;49837;57.280;27.070;2022-07-06T00:11:04;6.6;;;1.8;;
63690;SDS011;49837;57.280;27.070;2022-07-06T00:12:05;3.5;;;1.7;;
63690;SDS011;49837;57.280;27.070;2022-07-06T00:13:05;5.5;;;1.6;;
63690;SDS011;49837;57.280;27.070;2022-07-06T00:14:05;4.1;;;1.8;;
63690;SDS011;49837;57.280;27.070;2022-07-06T00:15:06;5.6;;;1.8;;
63690;SDS011;49837;57.280;27.070;2022-07-06T00:16:06;4.5;;;1.8;;
63690;SDS011;49837;57.280;27.070;2022-07-06T00:17:07;3.6;;;1.5;;
63690;SDS011;49837;57.280;27.070;2022-07-06T00:18:07;3.4;;;1.5;;
63690;SDS011;49837;57.280;27.070;2022-07-06T00:19:08;3.1;;;1.5;;
63690;SDS011;49837;57.280;27.070;2022-07-06T00:20:08;5.1;;;1.8;;
63690;SDS011;49837;57.280;27.070;2022-07-06T00:21:08;4.9;;;1.8;;
63690;SDS011;49837;57.280;27.070;2022-07-06T00:22:09;3.5;;;1.7;;
63690;SDS011;49837;57.280;27.070;2022-07-06T00:23:10;6.6;;;1.9;;
63690;SDS011;49837;57.280;27.070;2022-07-06T00:24:10;5.6;;;1.8;;
63690;SDS011;49837;57.280;27.070;2022-07-06T00:25:11;6.2;;;1.9;;
63690;SDS011;49837;57.280;27.070;2022-07-06T00:26:11;6.5;;;1.8;;
63690;SDS011;49837;57.280;27.070;2022-07-06T00:27:12;5.1;;;1.7;;
63690;SDS011;49837;57.280;27.070;2022-07-06T00:28:12;3.3;;;1.9;;
63690;SDS011;49837;57.280;27.070;2022-07-06T00:29:12;6.2;;;2.0;;
63690;SDS011;49837;57.280;27.070;2022-07-06T00:30:14;4.3;;;1.9;;
63690;SDS011;49837;57.280;27.070;2022-07-06T00:31:14;6.3;;;2.0;;
63690;SDS011;49837;57.280;27.070;2022-07-06T00:32:14;4.7;;;1.9;;
63690;SDS011;49837;57.280;27.070;2022-07-06T00:33:15;2.6;;;1.8;;
63690;SDS011;49837;57.280;27.070;2022-07-06T00:34:15;7.2;;;2.1;;
63690;SDS011;49837;57.280;27.070;2022-07-06T00:35:16;7.2;;;1.8;;
63690;SDS011;49837;57.280;27.070;2022-07-06T00:36:16;3.4;;;1.7;;
63690;SDS011;49837;57.280;27.070;2022-07-06T00:37:17;3.3;;;1.8;;
63690;SDS011;49837;57.280;27.070;2022-07-06T00:38:17;3.6;;;1.9;;
63690;SDS011;49837;57.280;27.070;2022-07-06T00:39:18;5.0;;;1.8;;
63690;SDS011;49837;57.280;27.070;2022-07-06T00:40:19;6.6;;;1.9;;
63690;SDS011;49837;57.280;27.070;2022-07-06T00:41:19;5.0;;;1.8;;
63690;SDS011;49837;57.280;27.070;2022-07-06T00:42:19;6.7;;;2.2;;
63690;SDS011;49837;57.280;27.070;2022-07-06T00:43:20;3.4;;;1.7;;
63690;SDS011;49837;57.280;27.070;2022-07-06T00:44:20;4.4;;;1.9;;
63690;SDS011;49837;57.280;27.070;2022-07-06T00:45:21;4.8;;;1.8;;
63690;SDS011;49837;57.280;27.070;2022-07-06T00:46:28;7.7;;;2.0;;
63690;SDS011;49837;57.280;27.070;2022-07-06T00:47:22;3.4;;;1.7;;
63690;SDS011;49837;57.280;27.070;2022-07-06T00:48:22;9.9;;;2.2;;
63690;SDS011;49837;57.280;27.070;2022-07-06T00:49:23;3.5;;;1.9;;
63690;SDS011;49837;57.280;27.070;2022-07-06T00:50:23;6.8;;;1.9;;
63690;SDS011;49837;57.280;27.070;2022-07-06T00:51:25;7.8;;;1.8;;
63690;SDS011;49837;57.280;27.070;2022-07-06T00:52:25;6.7;;;2.2;;
63690;SDS011;49837;57.280;27.070;2022-07-06T00:53:26;5.2;;;1.8;;
63690;SDS011;49837;57.280;27.070;2022-07-06T00:54:26;13.1;;;2.2;;
63690;SDS011;49837;57.280;27.070;2022-07-06T00:55:28;6.6;;;2.0;;
63690;SDS011;49837;57.280;27.070;2022-07-06T00:56:28;3.9;;;1.9;;
63690;SDS011;49837;57.280;27.070;2022-07-06T00:57:28;3.0;;;1.8;;
63690;SDS011;49837;57.280;27.070;2022-07-06T00:58:29;5.3;;;1.7;;
63690;SDS011;49837;57.280;27.070;2022-07-06T00:59:29;2.2;;;1.6;;
63690;SDS011;49837;57.280;27.070;2022-07-06T01:00:30;4.5;;;1.9;;
63690;SDS011;49837;57.280;27.070;2022-07-06T01:01:30;4.4;;;1.9;;
63690;SDS011;49837;57.280;27.070;2022-07-06T01:02:31;5.6;;;1.9;;
63690;SDS011;49837;57.280;27.070;2022-07-06T01:03:32;4.7;;;2.0;;
63690;SDS011;49837;57.280;27.070;2022-07-06T01:04:31;6.5;;;2.0;;
63690;SDS011;49837;57.280;27.070;2022-07-06T01:05:32;2.6;;;1.8;;
63690;SDS011;49837;57.280;27.070;2022-07-06T01:06:32;9.1;;;2.0;;
63690;SDS011;49837;57.280;27.070;2022-07-06T01:07:33;5.2;;;2.2;;
63690;SDS011;49837;57.280;27.070;2022-07-06T01:08:33;5.0;;;1.8;;
63690;SDS011;49837;57.280;27.070;2022-07-06T01:09:33;7.6;;;2.2;;
63690;SDS011;49837;57.280;27.070;2022-07-06T01:10:34;4.1;;;1.7;;
63690;SDS011;49837;57.280;27.070;2022-07-06T01:11:34;5.6;;;1.9;;
63690;SDS011;49837;57.280;27.070;2022-07-06T01:12:35;8.2;;;2.2;;
63690;SDS011;49837;57.280;27.070;2022-07-06T01:13:35;7.1;;;2.3;;
63690;SDS011;49837;57.280;27.070;2022-07-06T01:14:35;5.5;;;2.1;;
63690;SDS011;49837;57.280;27.070;2022-07-06T01:15:36;7.0;;;2.1;;
63690;SDS011;49837;57.280;27.070;2022-07-06T01:16:36;7.8;;;2.0;;
63690;SDS011;49837;57.280;27.070;2022-07-06T01:17:38;7.7;;;1.8;;
63690;SDS011;49837;57.280;27.070;2022-07-06T01:18:37;7.7;;;2.3;;
63690;SDS011;49837;57.280;27.070;2022-07-06T01:19:38;8.2;;;2.0;;
63690;SDS011;49837;57.280;27.070;2022-07-06T01:20:38;5.3;;;2.1;;
63690;SDS011;49837;57.280;27.070;2022-07-06T01:21:38;4.4;;;2.0;;
63690;SDS011;49837;57.280;27.070;2022-07-06T01:22:39;6.7;;;2.2;;
63690;SDS011;49837;57.280;27.070;2022-07-06T01:23:43;6.7;;;2.2;;
63690;SDS011;49837;57.280;27.070;2022-07-06T01:24:41;8.4;;;2.5;;
63690;SDS011;49837;57.280;27.070;2022-07-06T01:25:41;6.1;;;2.0;;
63690;SDS011;49837;57.280;27.070;2022-07-06T01:26:41;7.9;;;2.3;;
63690;SDS011;49837;57.280;27.070;2022-07-06T01:27:42;8.3;;;2.5;;
63690;SDS011;49837;57.280;27.070;2022-07-06T01:28:42;10.4;;;2.3;;
63690;SDS011;49837;57.280;27.070;2022-07-06T01:29:43;9.6;;;2.2;;
63690;SDS011;49837;57.280;27.070;2022-07-06T01:30:43;5.9;;;2.0;;
63690;SDS011;49837;57.280;27.070;2022-07-06T01:31:47;7.7;;;1.9;;
63690;SDS011;49837;57.280;27.070;2022-07-06T01:32:45;4.8;;;1.9;;
63690;SDS011;49837;57.280;27.070;2022-07-06T01:33:45;9.1;;;2.5;;
63690;SDS011;49837;57.280;27.070;2022-07-06T01:34:46;7.1;;;2.2;;
63690;SDS011;49837;57.280;27.070;2022-07-06T01:35:46;4.6;;;2.1;;
63690;SDS011;49837;57.280;27.070;2022-07-06T01:36:46;7.8;;;2.1;;
63690;SDS011;49837;57.280;27.070;2022-07-06T01:37:47;2.4;;;1.9;;
63690;SDS011;49837;57.280;27.070;2022-07-06T01:38:48;4.6;;;2.0;;
63690;SDS011;49837;57.280;27.070;2022-07-06T01:39:48;6.0;;;2.0;;
63690;SDS011;49837;57.280;27.070;2022-07-06T01:40:48;5.3;;;2.1;;
63690;SDS011;49837;57.280;27.070;2022-07-06T01:41:49;6.0;;;2.0;;
63690;SDS011;49837;57.280;27.070;2022-07-06T01:42:49;3.3;;;1.7;;
63690;SDS011;49837;57.280;27.070;2022-07-06T01:43:49;6.0;;;2.3;;
63690;SDS011;49837;57.280;27.070;2022-07-06T01:44:50;5.9;;;1.8;;
63690;SDS011;49837;57.280;27.070;2022-07-06T01:45:50;8.4;;;1.9;;
63690;SDS011;49837;57.280;27.070;2022-07-06T01:46:51;7.0;;;2.1;;
63690;SDS011;49837;57.280;27.070;2022-07-06T01:47:52;4.9;;;2.0;;
63690;SDS011;49837;57.280;27.070;2022-07-06T01:48:52;7.4;;;2.2;;
63690;SDS011;49837;57.280;27.070;2022-07-06T01:49:53;8.2;;;2.4;;
63690;SDS011;49837;57.280;27.070;2022-07-06T01:50:53;6.3;;;2.1;;
63690;SDS011;49837;57.280;27.070;2022-07-06T01:51:53;5.1;;;1.9;;
63690;SDS011;49837;57.280;27.070;2022-07-06T01:52:54;5.8;;;1.8;;
63690;SDS011;49837;57.280;27.070;2022-07-06T01:53:54;7.5;;;2.5;;
63690;SDS011;49837;57.280;27.070;2022-07-06T01:54:55;5.5;;;2.1;;
63690;SDS011;49837;57.280;27.070;2022-07-06T01:55:55;5.8;;;1.8;;
63690;SDS011;49837;57.280;27.070;2022-07-06T01:56:56;5.2;;;1.8;;
63690;SDS011;49837;57.280;27.070;2022-07-06T01:57:56;5.5;;;1.9;;
63690;SDS011;49837;57.280;27.070;2022-07-06T01:58:56;6.8;;;1.8;;
63690;SDS011;49837;57.280;27.070;2022-07-06T01:59:57;4.4;;;2.0;;
63690;SDS011;49837;57.280;27.070;2022-07-06T02:00:57;3.7;;;1.6;;
63690;SDS011;49837;57.280;27.070;2022-07-06T02:01:58;9.9;;;2.2;;
63690;SDS011;49837;57.280;27.070;2022-07-06T02:02:58;5.2;;;1.8;;
63690;SDS011;49837;57.280;27.070;2022-07-06T02:03:59;4.0;;;1.6;;
63690;SDS011;49837;57.280;27.070;2022-07-06T02:04:59;4.7;;;1.6;;
63690;SDS011;49837;57.280;27.070;2022-07-06T02:05:59;4.1;;;2.0;;
63690;SDS011;49837;57.280;27.070;2022-07-06T02:07:00;4.9;;;1.8;;
63690;SDS011;49837;57.280;27.070;2022-07-06T02:08:00;5.6;;;2.2;;
63690;SDS011;49837;57.280;27.070;2022-07-06T02:09:01;4.9;;;2.0;;
63690;SDS011;49837;57.280;27.070;2022-07-06T02:10:01;4.7;;;1.8;;
63690;SDS011;49837;57.280;27.070;2022-07-06T02:11:02;3.1;;;1.7;;
63690;SDS011;49837;57.280;27.070;2022-07-06T02:12:02;6.3;;;1.8;;
63690;SDS011;49837;57.280;27.070;2022-07-06T02:13:02;6.9;;;1.9;;
63690;SDS011;49837;57.280;27.070;2022-07-06T02:14:03;3.5;;;1.9;;
63690;SDS011;49837;57.280;27.070;2022-07-06T02:15:03;3.1;;;1.5;;
63690;SDS011;49837;57.280;27.070;2022-07-06T02:16:04;9.9;;;1.9;;
63690;SDS011;49837;57.280;27.070;2022-07-06T02:17:04;3.0;;;1.7;;
63690;SDS011;49837;57.280;27.070;2022-07-06T02:18:05;4.9;;;1.7;;
63690;SDS011;49837;57.280;27.070;2022-07-06T02:19:06;8.6;;;2.0;;
63690;SDS011;49837;57.280;27.070;2022-07-06T02:20:06;8.5;;;2.5;;
63690;SDS011;49837;57.280;27.070;2022-07-06T02:21:07;8.7;;;2.3;;
63690;SDS011;49837;57.280;27.070;2022-07-06T02:22:07;4.6;;;1.7;;
63690;SDS011;49837;57.280;27.070;2022-07-06T02:23:07;3.4;;;1.7;;
63690;SDS011;49837;57.280;27.070;2022-07-06T02:24:08;5.9;;;1.8;;
63690;SDS011;49837;57.280;27.070;2022-07-06T02:25:08;4.9;;;1.7;;
63690;SDS011;49837;57.280;27.070;2022-07-06T02:26:09;8.4;;;1.9;;
63690;SDS011;49837;57.280;27.070;2022-07-06T02:27:09;5.4;;;2.1;;
63690;SDS011;49837;57.280;27.070;2022-07-06T02:28:09;6.0;;;1.8;;
63690;SDS011;49837;57.280;27.070;2022-07-06T02:29:10;6.2;;;1.7;;
63690;SDS011;49837;57.280;27.070;2022-07-06T02:30:11;5.9;;;1.8;;
63690;SDS011;49837;57.280;27.070;2022-07-06T02:31:11;3.3;;;1.8;;
63690;SDS011;49837;57.280;27.070;2022-07-06T02:32:11;5.8;;;2.3;;
63690;SDS011;49837;57.280;27.070;2022-07-06T02:33:12;6.3;;;2.1;;
63690;SDS011;49837;57.280;27.070;2022-07-06T02:34:12;6.5;;;2.1;;
63690;SDS011;49837;57.280;27.070;2022-07-06T02:35:12;4.9;;;1.9;;
63690;SDS011;49837;57.280;27.070;2022-07-06T02:36:13;8.6;;;2.1;;
63690;SDS011;49837;57.280;27.070;2022-07-06T02:37:13;4.0;;;1.8;;
63690;SDS011;49837;57.280;27.070;2022-07-06T02:38:14;5.5;;;1.9;;
63690;SDS011;49837;57.280;27.070;2022-07-06T02:39:14;7.6;;;2.2;;
63690;SDS011;49837;57.280;27.070;2022-07-06T02:40:15;3.7;;;2.0;;
63690;SDS011;49837;57.280;27.070;2022-07-06T02:41:15;4.9;;;1.8;;
63690;SDS011;49837;57.280;27.070;2022-07-06T02:42:16;5.1;;;2.1;;
63690;SDS011;49837;57.280;27.070;2022-07-06T02:43:16;7.3;;;1.9;;
63690;SDS011;49837;57.280;27.070;2022-07-06T02:44:16;6.1;;;2.2;;
63690;SDS011;49837;57.280;27.070;2022-07-06T02:45:17;2.7;;;1.7;;
63690;SDS011;49837;57.280;27.070;2022-07-06T02:46:17;14.9;;;2.2;;
63690;SDS011;49837;57.280;27.070;2022-07-06T02:47:18;6.8;;;2.1;;
63690;SDS011;49837;57.280;27.070;2022-07-06T02:48:18;4.5;;;1.9;;
63690;SDS011;49837;57.280;27.070;2022-07-06T02:49:19;8.6;;;1.8;;
63690;SDS011;49837;57.280;27.070;2022-07-06T02:50:19;6.8;;;2.0;;
63690;SDS011;49837;57.280;27.070;2022-07-06T02:51:19;3.1;;;1.6;;
63690;SDS011;49837;57.280;27.070;2022-07-06T02:52:20;3.9;;;2.1;;
63690;SDS011;49837;57.280;27.070;2022-07-06T02:53:20;9.4;;;2.2;;
63690;SDS011;49837;57.280;27.070;2022-07-06T02:54:21;4.2;;;2.0;;
63690;SDS011;49837;57.280;27.070;2022-07-06T02:55:21;4.8;;;1.9;;
63690;SDS011;49837;57.280;27.070;2022-07-06T02:56:22;5.8;;;1.9;;
63690;SDS011;49837;57.280;27.070;2022-07-06T02:57:22;3.1;;;1.8;;
63690;SDS011;49837;57.280;27.070;2022-07-06T02:58:22;2.9;;;1.7;;
63690;SDS011;49837;57.280;27.070;2022-07-06T02:59:23;7.1;;;2.2;;
63690;SDS011;49837;57.280;27.070;2022-07-06T03:00:23;6.3;;;2.1;;
63690;SDS011;49837;57.280;27.070;2022-07-06T03:01:24;5.3;;;2.0;;
63690;SDS011;49837;57.280;27.070;2022-07-06T03:02:24;7.3;;;1.8;;
63690;SDS011;49837;57.280;27.070;2022-07-06T03:03:25;5.1;;;2.1;;
63690;SDS011;49837;57.280;27.070;2022-07-06T03:04:25;7.4;;;2.2;;
63690;SDS011;49837;57.280;27.070;2022-07-06T03:05:25;13.1;;;2.4;;
63690;SDS011;49837;57.280;27.070;2022-07-06T03:06:26;6.0;;;2.1;;
63690;SDS011;49837;57.280;27.070;2022-07-06T03:07:26;14.4;;;2.6;;
63690;SDS011;49837;57.280;27.070;2022-07-06T03:08:27;4.9;;;2.1;;
63690;SDS011;49837;57.280;27.070;2022-07-06T03:09:27;6.7;;;2.3;;
63690;SDS011;49837;57.280;27.070;2022-07-06T03:10:28;6.9;;;2.4;;
63690;SDS011;49837;57.280;27.070;2022-07-06T03:11:28;6.7;;;2.1;;
63690;SDS011;49837;57.280;27.070;2022-07-06T03:12:28;6.4;;;2.1;;
63690;SDS011;49837;57.280;27.070;2022-07-06T03:13:29;7.0;;;2.3;;
63690;SDS011;49837;57.280;27.070;2022-07-06T03:14:29;5.1;;;2.4;;
63690;SDS011;49837;57.280;27.070;2022-07-06T03:15:30;7.2;;;2.2;;
63690;SDS011;49837;57.280;27.070;2022-07-06T03:16:30;9.0;;;2.3;;
63690;SDS011;49837;57.280;27.070;2022-07-06T03:17:31;11.0;;;2.4;;
63690;SDS011;49837;57.280;27.070;2022-07-06T03:18:31;6.9;;;2.6;;
63690;SDS011;49837;57.280;27.070;2022-07-06T03:19:31;11.5;;;2.9;;
63690;SDS011;49837;57.280;27.070;2022-07-06T03:20:32;9.4;;;3.0;;
63690;SDS011;49837;57.280;27.070;2022-07-06T03:21:32;8.8;;;2.7;;
63690;SDS011;49837;57.280;27.070;2022-07-06T03:22:33;10.1;;;3.0;;
63690;SDS011;49837;57.280;27.070;2022-07-06T03:23:33;16.4;;;3.6;;
63690;SDS011;49837;57.280;27.070;2022-07-06T03:24:34;15.2;;;4.4;;
63690;SDS011;49837;57.280;27.070;2022-07-06T03:25:34;15.7;;;3.8;;
63690;SDS011;49837;57.280;27.070;2022-07-06T03:26:35;16.0;;;4.0;;
63690;SDS011;49837;57.280;27.070;2022-07-06T03:27:36;14.8;;;4.0;;
63690;SDS011;49837;57.280;27.070;2022-07-06T03:28:36;12.9;;;4.1;;
63690;SDS011;49837;57.280;27.070;2022-07-06T03:29:36;13.1;;;3.5;;
63690;SDS011;49837;57.280;27.070;2022-07-06T03:30:37;11.3;;;3.2;;
63690;SDS011;49837;57.280;27.070;2022-07-06T03:31:37;11.1;;;2.8;;
63690;SDS011;49837;57.280;27.070;2022-07-06T03:32:38;9.8;;;3.1;;
63690;SDS011;49837;57.280;27.070;2022-07-06T03:33:38;7.9;;;2.9;;
63690;SDS011;49837;57.280;27.070;2022-07-06T03:34:39;13.7;;;3.6;;
63690;SDS011;49837;57.280;27.070;2022-07-06T03:35:39;10.2;;;3.3;;
63690;SDS011;49837;57.280;27.070;2022-07-06T03:36:40;12.6;;;3.4;;
63690;SDS011;49837;57.280;27.070;2022-07-06T03:37:40;10.7;;;3.2;;
63690;SDS011;49837;57.280;27.070;2022-07-06T03:38:40;19.4;;;3.6;;
63690;SDS011;49837;57.280;27.070;2022-07-06T03:39:41;10.4;;;3.0;;
63690;SDS011;49837;57.280;27.070;2022-07-06T03:40:41;11.8;;;3.1;;
63690;SDS011;49837;57.280;27.070;2022-07-06T03:41:42;10.1;;;3.3;;
63690;SDS011;49837;57.280;27.070;2022-07-06T03:42:42;11.5;;;3.3;;
63690;SDS011;49837;57.280;27.070;2022-07-06T03:43:43;9.2;;;2.9;;
63690;SDS011;49837;57.280;27.070;2022-07-06T03:44:43;13.2;;;3.7;;
63690;SDS011;49837;57.280;27.070;2022-07-06T03:45:44;14.4;;;3.3;;
63690;SDS011;49837;57.280;27.070;2022-07-06T03:46:44;14.6;;;3.5;;
63690;SDS011;49837;57.280;27.070;2022-07-06T03:47:44;8.6;;;3.3;;
63690;SDS011;49837;57.280;27.070;2022-07-06T03:48:45;9.4;;;3.0;;
63690;SDS011;49837;57.280;27.070;2022-07-06T03:49:45;13.3;;;3.5;;
63690;SDS011;49837;57.280;27.070;2022-07-06T03:50:46;13.4;;;3.6;;
63690;SDS011;49837;57.280;27.070;2022-07-06T03:51:46;10.7;;;2.9;;
63690;SDS011;49837;57.280;27.070;2022-07-06T03:52:47;15.9;;;2.9;;
63690;SDS011;49837;57.280;27.070;2022-07-06T03:53:48;6.8;;;2.7;;
63690;SDS011;49837;57.280;27.070;2022-07-06T03:54:48;6.9;;;2.9;;
63690;SDS011;49837;57.280;27.070;2022-07-06T03:55:49;9.9;;;3.2;;
63690;SDS011;49837;57.280;27.070;2022-07-06T03:56:49;13.2;;;4.1;;
63690;SDS011;49837;57.280;27.070;2022-07-06T03:57:49;11.5;;;3.4;;
63690;SDS011;49837;57.280;27.070;2022-07-06T03:58:50;9.1;;;3.0;;
63690;SDS011;49837;57.280;27.070;2022-07-06T03:59:50;9.1;;;3.1;;
63690;SDS011;49837;57.280;27.070;2022-07-06T04:00:51;7.0;;;3.1;;
63690;SDS011;49837;57.280;27.070;2022-07-06T04:01:51;7.6;;;2.8;;
63690;SDS011;49837;57.280;27.070;2022-07-06T04:02:52;10.1;;;3.4;;
63690;SDS011;49837;57.280;27.070;2022-07-06T04:03:52;10.9;;;3.2;;
63690;SDS011;49837;57.280;27.070;2022-07-06T04:04:53;10.3;;;3.4;;
63690;SDS011;49837;57.280;27.070;2022-07-06T04:05:53;13.0;;;3.2;;
63690;SDS011;49837;57.280;27.070;2022-07-06T04:06:54;8.4;;;2.9;;
63690;SDS011;49837;57.280;27.070;2022-07-06T04:07:54;9.4;;;3.2;;
63690;SDS011;49837;57.280;27.070;2022-07-06T04:08:54;7.3;;;3.2;;
63690;SDS011;49837;57.280;27.070;2022-07-06T04:09:55;12.0;;;3.4;;
63690;SDS011;49837;57.280;27.070;2022-07-06T04:10:55;12.4;;;3.3;;
63690;SDS011;49837;57.280;27.070;2022-07-06T04:11:56;8.5;;;3.2;;
63690;SDS011;49837;57.280;27.070;2022-07-06T04:12:57;10.9;;;3.7;;
63690;SDS011;49837;57.280;27.070;2022-07-06T04:13:57;8.0;;;3.0;;
63690;SDS011;49837;57.280;27.070;2022-07-06T04:14:58;6.7;;;3.1;;
63690;SDS011;49837;57.280;27.070;2022-07-06T04:15:58;5.7;;;3.2;;
63690;SDS011;49837;57.280;27.070;2022-07-06T04:16:59;11.4;;;3.3;;
63690;SDS011;49837;57.280;27.070;2022-07-06T04:17:59;8.6;;;2.9;;
63690;SDS011;49837;57.280;27.070;2022-07-06T04:19:00;11.5;;;3.1;;
63690;SDS011;49837;57.280;27.070;2022-07-06T04:20:00;9.6;;;3.0;;
63690;SDS011;49837;57.280;27.070;2022-07-06T04:21:01;11.6;;;2.8;;
63690;SDS011;49837;57.280;27.070;2022-07-06T04:22:01;6.7;;;2.7;;
63690;SDS011;49837;57.280;27.070;2022-07-06T04:23:02;7.8;;;3.0;;
63690;SDS011;49837;57.280;27.070;2022-07-06T04:24:02;10.4;;;3.1;;
63690;SDS011;49837;57.280;27.070;2022-07-06T04:25:03;11.1;;;3.5;;
63690;SDS011;49837;57.280;27.070;2022-07-06T04:26:03;9.8;;;3.2;;
63690;SDS011;49837;57.280;27.070;2022-07-06T04:27:04;9.4;;;3.1;;
63690;SDS011;49837;57.280;27.070;2022-07-06T04:28:04;11.8;;;2.9;;
63690;SDS011;49837;57.280;27.070;2022-07-06T04:29:04;7.5;;;2.9;;
63690;SDS011;49837;57.280;27.070;2022-07-06T04:30:05;8.9;;;3.0;;
63690;SDS011;49837;57.280;27.070;2022-07-06T04:31:05;7.0;;;2.9;;
63690;SDS011;49837;57.280;27.070;2022-07-06T04:32:06;10.6;;;2.8;;
63690;SDS011;49837;57.280;27.070;2022-07-06T04:33:06;11.6;;;2.8;;
63690;SDS011;49837;57.280;27.070;2022-07-06T04:34:07;7.5;;;2.7;;
63690;SDS011;49837;57.280;27.070;2022-07-06T04:35:08;10.7;;;2.9;;
63690;SDS011;49837;57.280;27.070;2022-07-06T04:36:09;9.7;;;2.9;;
63690;SDS011;49837;57.280;27.070;2022-07-06T04:37:09;10.2;;;3.0;;
63690;SDS011;49837;57.280;27.070;2022-07-06T04:38:09;9.5;;;2.8;;
63690;SDS011;49837;57.280;27.070;2022-07-06T04:39:10;9.0;;;3.1;;
63690;SDS011;49837;57.280;27.070;2022-07-06T04:40:10;7.2;;;2.9;;
63690;SDS011;49837;57.280;27.070;2022-07-06T04:41:11;7.1;;;2.7;;
63690;SDS011;49837;57.280;27.070;2022-07-06T04:42:11;8.4;;;2.8;;
63690;SDS011;49837;57.280;27.070;2022-07-06T04:43:12;8.4;;;2.8;;
63690;SDS011;49837;57.280;27.070;2022-07-06T04:44:12;12.3;;;2.7;;
63690;SDS011;49837;57.280;27.070;2022-07-06T04:45:12;10.1;;;2.8;;
63690;SDS011;49837;57.280;27.070;2022-07-06T04:46:13;9.1;;;2.8;;
63690;SDS011;49837;57.280;27.070;2022-07-06T04:47:13;10.6;;;2.7;;
63690;SDS011;49837;57.280;27.070;2022-07-06T04:48:14;7.7;;;2.6;;
63690;SDS011;49837;57.280;27.070;2022-07-06T04:49:15;7.7;;;2.5;;
63690;SDS011;49837;57.280;27.070;2022-07-06T04:50:15;4.2;;;2.2;;
63690;SDS011;49837;57.280;27.070;2022-07-06T04:51:16;6.0;;;2.5;;
63690;SDS011;49837;57.280;27.070;2022-07-06T04:52:16;8.0;;;2.5;;
63690;SDS011;49837;57.280;27.070;2022-07-06T04:53:17;10.9;;;2.8;;
63690;SDS011;49837;57.280;27.070;2022-07-06T04:54:17;9.0;;;2.8;;
63690;SDS011;49837;57.280;27.070;2022-07-06T04:55:18;8.1;;;2.5;;
63690;SDS011;49837;57.280;27.070;2022-07-06T04:56:18;5.6;;;2.5;;
63690;SDS011;49837;57.280;27.070;2022-07-06T04:57:19;9.2;;;2.8;;
63690;SDS011;49837;57.280;27.070;2022-07-06T04:58:19;4.7;;;2.3;;
63690;SDS011;49837;57.280;27.070;2022-07-06T04:59:19;10.1;;;2.9;;
63690;SDS011;49837;57.280;27.070;2022-07-06T05:00:20;8.2;;;2.8;;
63690;SDS011;49837;57.280;27.070;2022-07-06T05:01:20;7.1;;;2.6;;
63690;SDS011;49837;57.280;27.070;2022-07-06T05:02:21;4.2;;;2.4;;
63690;SDS011;49837;57.280;27.070;2022-07-06T05:03:21;8.1;;;2.4;;
63690;SDS011;49837;57.280;27.070;2022-07-06T05:04:22;8.3;;;2.6;;
63690;SDS011;49837;57.280;27.070;2022-07-06T05:05:22;6.3;;;2.3;;
63690;SDS011;49837;57.280;27.070;2022-07-06T05:06:23;5.7;;;2.2;;
63690;SDS011;49837;57.280;27.070;2022-07-06T05:07:23;5.9;;;2.3;;
63690;SDS011;49837;57.280;27.070;2022-07-06T05:08:24;6.1;;;2.5;;
63690;SDS011;49837;57.280;27.070;2022-07-06T05:09:24;7.3;;;2.5;;
63690;SDS011;49837;57.280;27.070;2022-07-06T05:10:25;9.6;;;2.4;;
63690;SDS011;49837;57.280;27.070;2022-07-06T05:11:28;6.6;;;2.5;;
63690;SDS011;49837;57.280;27.070;2022-07-06T05:12:25;11.2;;;2.5;;
63690;SDS011;49837;57.280;27.070;2022-07-06T05:13:26;5.5;;;2.5;;
63690;SDS011;49837;57.280;27.070;2022-07-06T05:14:26;8.7;;;2.3;;
63690;SDS011;49837;57.280;27.070;2022-07-06T05:15:27;6.3;;;2.3;;
63690;SDS011;49837;57.280;27.070;2022-07-06T05:16:27;7.1;;;2.7;;
63690;SDS011;49837;57.280;27.070;2022-07-06T05:17:28;4.0;;;2.1;;
63690;SDS011;49837;57.280;27.070;2022-07-06T05:18:28;7.7;;;2.5;;
63690;SDS011;49837;57.280;27.070;2022-07-06T05:19:29;5.3;;;2.1;;
63690;SDS011;49837;57.280;27.070;2022-07-06T05:20:29;7.7;;;2.5;;
63690;SDS011;49837;57.280;27.070;2022-07-06T05:21:30;5.8;;;2.1;;
63690;SDS011;49837;57.280;27.070;2022-07-06T05:22:30;7.7;;;2.3;;
63690;SDS011;49837;57.280;27.070;2022-07-06T05:23:31;5.1;;;2.3;;
63690;SDS011;49837;57.280;27.070;2022-07-06T05:24:31;8.4;;;2.6;;
63690;SDS011;49837;57.280;27.070;2022-07-06T05:25:32;6.5;;;2.2;;
63690;SDS011;49837;57.280;27.070;2022-07-06T05:26:32;7.2;;;2.5;;
63690;SDS011;49837;57.280;27.070;2022-07-06T05:27:33;8.0;;;2.3;;
63690;SDS011;49837;57.280;27.070;2022-07-06T05:28:33;7.7;;;2.3;;
63690;SDS011;49837;57.280;27.070;2022-07-06T05:29:33;3.8;;;2.3;;
63690;SDS011;49837;57.280;27.070;2022-07-06T05:30:34;5.8;;;2.3;;
63690;SDS011;49837;57.280;27.070;2022-07-06T05:31:34;8.3;;;2.1;;
63690;SDS011;49837;57.280;27.070;2022-07-06T05:32:35;3.9;;;2.3;;
63690;SDS011;49837;57.280;27.070;2022-07-06T05:33:35;6.1;;;2.2;;
63690;SDS011;49837;57.280;27.070;2022-07-06T05:34:36;4.6;;;2.2;;
63690;SDS011;49837;57.280;27.070;2022-07-06T05:35:36;8.1;;;2.7;;
63690;SDS011;49837;57.280;27.070;2022-07-06T05:36:37;4.6;;;2.1;;
63690;SDS011;49837;57.280;27.070;2022-07-06T05:37:37;7.6;;;2.1;;
63690;SDS011;49837;57.280;27.070;2022-07-06T05:38:38;6.9;;;2.1;;
63690;SDS011;49837;57.280;27.070;2022-07-06T05:39:38;5.8;;;2.1;;
63690;SDS011;49837;57.280;27.070;2022-07-06T05:40:39;5.6;;;2.0;;
63690;SDS011;49837;57.280;27.070;2022-07-06T05:41:39;4.9;;;2.0;;
63690;SDS011;49837;57.280;27.070;2022-07-06T05:42:40;4.4;;;2.1;;
63690;SDS011;49837;57.280;27.070;2022-07-06T05:43:40;3.8;;;1.7;;
63690;SDS011;49837;57.280;27.070;2022-07-06T05:44:41;4.8;;;1.8;;
63690;SDS011;49837;57.280;27.070;2022-07-06T05:45:41;8.2;;;2.3;;
63690;SDS011;49837;57.280;27.070;2022-07-06T05:46:42;4.8;;;1.9;;
63690;SDS011;49837;57.280;27.070;2022-07-06T05:47:42;5.2;;;1.7;;
63690;SDS011;49837;57.280;27.070;2022-07-06T05:48:43;5.1;;;2.1;;
63690;SDS011;49837;57.280;27.070;2022-07-06T05:49:44;5.7;;;1.8;;
63690;SDS011;49837;57.280;27.070;2022-07-06T05:50:44;4.0;;;1.8;;
63690;SDS011;49837;57.280;27.070;2022-07-06T05:51:45;6.3;;;1.9;;
63690;SDS011;49837;57.280;27.070;2022-07-06T05:52:54;4.5;;;1.7;;
63690;SDS011;49837;57.280;27.070;2022-07-06T05:53:47;7.4;;;1.7;;
63690;SDS011;49837;57.280;27.070;2022-07-06T05:54:48;5.9;;;1.9;;
63690;SDS011;49837;57.280;27.070;2022-07-06T05:55:48;6.9;;;1.8;;
63690;SDS011;49837;57.280;27.070;2022-07-06T05:56:49;5.4;;;1.7;;
63690;SDS011;49837;57.280;27.070;2022-07-06T05:57:49;5.7;;;1.6;;
63690;SDS011;49837;57.280;27.070;2022-07-06T05:58:50;8.2;;;2.3;;
63690;SDS011;49837;57.280;27.070;2022-07-06T05:59:50;4.9;;;1.7;;
63690;SDS011;49837;57.280;27.070;2022-07-06T06:00:51;5.7;;;2.0;;
63690;SDS011;49837;57.280;27.070;2022-07-06T06:01:51;4.4;;;1.8;;
63690;SDS011;49837;57.280;27.070;2022-07-06T06:02:52;5.0;;;1.7;;
63690;SDS011;49837;57.280;27.070;2022-07-06T06:03:52;5.0;;;1.5;;
63690;SDS011;49837;57.280;27.070;2022-07-06T06:04:52;3.6;;;1.8;;
63690;SDS011;49837;57.280;27.070;2022-07-06T06:05:53;9.7;;;1.6;;
63690;SDS011;49837;57.280;27.070;2022-07-06T06:06:53;6.9;;;1.5;;
63690;SDS011;49837;57.280;27.070;2022-07-06T06:07:54;4.2;;;1.5;;
63690;SDS011;49837;57.280;27.070;2022-07-06T06:08:54;4.2;;;1.5;;
63690;SDS011;49837;57.280;27.070;2022-07-06T06:09:54;6.1;;;1.6;;